sensor_id;sensor_type;location;lat;lon;timestamp;P1;durP1;ratioP1;P2;durP2;ratioP2
20721;SDS011;10522;52.198;9.890;2023-03-05T00:01:05;8.07;;;2.10;;
20721;SDS011;10522;52.198;9.890;2023-03-05T00:03:32;10.83;;;3.03;;
20721;SDS011;10522;52.198;9.890;2023-03-05T00:05:58;5.70;;;1.97;;
20721;SDS011;10522;52.198;9.890;2023-03-05T00:08:23;8.70;;;2.30;;
20721;SDS011;10522;52.198;9.890;2023-03-05T00:10:56;8.73;;;2.30;;
20721;SDS011;10522;52.198;9.890;2023-03-05T00:13:22;6.90;;;2.53;;
20721;SDS011;10522;52.198;9.890;2023-03-05T00:15:48;9.77;;;2.17;;
20721;SDS011;10522;52.198;9.890;2023-03-05T00:18:13;8.07;;;2.77;;
20721;SDS011;10522;52.198;9.890;2023-03-05T00:20:39;10.00;;;2.10;;
20721;SDS011;10522;52.198;9.890;2023-03-05T00:23:04;6.53;;;2.23;;
20721;SDS011;10522;52.198;9.890;2023-03-05T00:25:30;16.47;;;3.00;;
20721;SDS011;10522;52.198;9.890;2023-03-05T00:27:55;12.70;;;2.57;;
20721;SDS011;10522;52.198;9.890;2023-03-05T00:30:21;8.00;;;2.30;;
20721;SDS011;10522;52.198;9.890;2023-03-05T00:32:47;10.67;;;2.07;;
20721;SDS011;10522;52.198;9.890;2023-03-05T00:35:12;4.97;;;2.20;;
20721;SDS011;10522;52.198;9.890;2023-03-05T00:37:38;7.00;;;2.30;;
20721;SDS011;10522;52.198;9.890;2023-03-05T00:40:05;11.43;;;2.73;;
20721;SDS011;10522;52.198;9.890;2023-03-05T00:42:31;5.43;;;2.40;;
20721;SDS011;10522;52.198;9.890;2023-03-05T00:45:02;10.90;;;2.30;;
20721;SDS011;10522;52.198;9.890;2023-03-05T00:47:31;8.23;;;1.93;;
20721;SDS011;10522;52.198;9.890;2023-03-05T00:49:57;6.97;;;3.00;;
20721;SDS011;10522;52.198;9.890;2023-03-05T00:52:22;8.07;;;2.13;;
20721;SDS011;10522;52.198;9.890;2023-03-05T00:54:48;8.13;;;2.17;;
20721;SDS011;10522;52.198;9.890;2023-03-05T00:57:14;10.40;;;2.67;;
20721;SDS011;10522;52.198;9.890;2023-03-05T00:59:39;10.83;;;1.87;;
20721;SDS011;10522;52.198;9.890;2023-03-05T01:02:05;6.53;;;2.03;;
20721;SDS011;10522;52.198;9.890;2023-03-05T01:04:30;10.33;;;2.10;;
20721;SDS011;10522;52.198;9.890;2023-03-05T01:06:56;11.60;;;2.53;;
20721;SDS011;10522;52.198;9.890;2023-03-05T01:09:22;10.77;;;2.43;;
20721;SDS011;10522;52.198;9.890;2023-03-05T01:11:49;12.20;;;2.07;;
20721;SDS011;10522;52.198;9.890;2023-03-05T01:14:15;14.77;;;2.30;;
20721;SDS011;10522;52.198;9.890;2023-03-05T01:16:42;9.10;;;2.00;;
20721;SDS011;10522;52.198;9.890;2023-03-05T01:19:07;10.47;;;2.17;;
20721;SDS011;10522;52.198;9.890;2023-03-05T01:21:34;5.80;;;1.93;;
20721;SDS011;10522;52.198;9.890;2023-03-05T01:24:00;10.53;;;2.73;;
20721;SDS011;10522;52.198;9.890;2023-03-05T01:26:26;7.63;;;1.93;;
20721;SDS011;10522;52.198;9.890;2023-03-05T01:28:52;10.53;;;2.10;;
20721;SDS011;10522;52.198;9.890;2023-03-05T01:31:18;9.63;;;2.63;;
20721;SDS011;10522;52.198;9.890;2023-03-05T01:33:44;10.30;;;2.27;;
20721;SDS011;10522;52.198;9.890;2023-03-05T01:36:11;7.97;;;2.10;;
20721;SDS011;10522;52.198;9.890;2023-03-05T01:38:40;9.63;;;2.50;;
20721;SDS011;10522;52.198;9.890;2023-03-05T01:41:07;16.47;;;2.67;;
20721;SDS011;10522;52.198;9.890;2023-03-05T01:43:33;5.93;;;2.00;;
20721;SDS011;10522;52.198;9.890;2023-03-05T01:48:49;7.63;;;2.17;;
20721;SDS011;10522;52.198;9.890;2023-03-05T01:51:19;6.37;;;1.97;;
20721;SDS011;10522;52.198;9.890;2023-03-05T01:53:48;9.07;;;2.50;;
20721;SDS011;10522;52.198;9.890;2023-03-05T01:56:14;13.43;;;2.33;;
20721;SDS011;10522;52.198;9.890;2023-03-05T01:58:40;8.13;;;2.50;;
20721;SDS011;10522;52.198;9.890;2023-03-05T02:01:06;7.63;;;2.17;;
20721;SDS011;10522;52.198;9.890;2023-03-05T02:03:32;10.70;;;2.43;;
20721;SDS011;10522;52.198;9.890;2023-03-05T02:05:58;12.10;;;2.47;;
20721;SDS011;10522;52.198;9.890;2023-03-05T02:08:24;9.60;;;3.60;;
20721;SDS011;10522;52.198;9.890;2023-03-05T02:10:50;7.57;;;3.23;;
20721;SDS011;10522;52.198;9.890;2023-03-05T02:13:20;8.40;;;2.90;;
20721;SDS011;10522;52.198;9.890;2023-03-05T02:15:48;6.70;;;3.20;;
20721;SDS011;10522;52.198;9.890;2023-03-05T02:18:15;15.13;;;3.33;;
20721;SDS011;10522;52.198;9.890;2023-03-05T02:20:47;13.20;;;3.93;;
20721;SDS011;10522;52.198;9.890;2023-03-05T02:23:34;5.33;;;2.43;;
20721;SDS011;10522;52.198;9.890;2023-03-05T02:26:01;13.80;;;4.17;;
20721;SDS011;10522;52.198;9.890;2023-03-05T02:31:16;6.43;;;1.77;;
20721;SDS011;10522;52.198;9.890;2023-03-05T02:33:44;10.33;;;3.17;;
20721;SDS011;10522;52.198;9.890;2023-03-05T02:36:10;13.93;;;2.83;;
20721;SDS011;10522;52.198;9.890;2023-03-05T02:38:36;3.80;;;1.97;;
20721;SDS011;10522;52.198;9.890;2023-03-05T02:41:03;7.80;;;2.53;;
20721;SDS011;10522;52.198;9.890;2023-03-05T02:43:28;11.93;;;3.17;;
20721;SDS011;10522;52.198;9.890;2023-03-05T02:45:54;9.90;;;3.73;;
20721;SDS011;10522;52.198;9.890;2023-03-05T02:48:20;9.13;;;3.33;;
20721;SDS011;10522;52.198;9.890;2023-03-05T02:50:45;8.20;;;2.97;;
20721;SDS011;10522;52.198;9.890;2023-03-05T02:53:11;6.27;;;2.87;;
20721;SDS011;10522;52.198;9.890;2023-03-05T02:55:37;6.50;;;2.57;;
20721;SDS011;10522;52.198;9.890;2023-03-05T02:58:03;9.07;;;2.70;;
20721;SDS011;10522;52.198;9.890;2023-03-05T03:00:28;10.17;;;3.40;;
20721;SDS011;10522;52.198;9.890;2023-03-05T03:02:54;11.30;;;2.13;;
20721;SDS011;10522;52.198;9.890;2023-03-05T03:05:20;10.03;;;2.70;;
20721;SDS011;10522;52.198;9.890;2023-03-05T03:07:45;5.20;;;2.10;;
20721;SDS011;10522;52.198;9.890;2023-03-05T03:10:11;6.77;;;2.47;;
20721;SDS011;10522;52.198;9.890;2023-03-05T03:12:38;7.20;;;2.67;;
20721;SDS011;10522;52.198;9.890;2023-03-05T03:15:04;13.60;;;2.60;;
20721;SDS011;10522;52.198;9.890;2023-03-05T03:17:33;11.27;;;2.67;;
20721;SDS011;10522;52.198;9.890;2023-03-05T03:20:00;15.47;;;3.50;;
20721;SDS011;10522;52.198;9.890;2023-03-05T03:22:27;9.27;;;3.63;;
20721;SDS011;10522;52.198;9.890;2023-03-05T03:24:53;10.23;;;2.73;;
20721;SDS011;10522;52.198;9.890;2023-03-05T03:27:18;10.30;;;2.40;;
20721;SDS011;10522;52.198;9.890;2023-03-05T03:29:44;6.33;;;2.90;;
20721;SDS011;10522;52.198;9.890;2023-03-05T03:32:09;6.87;;;3.17;;
20721;SDS011;10522;52.198;9.890;2023-03-05T03:34:35;8.63;;;1.90;;
20721;SDS011;10522;52.198;9.890;2023-03-05T03:37:01;9.93;;;1.90;;
20721;SDS011;10522;52.198;9.890;2023-03-05T03:39:26;3.40;;;1.67;;
20721;SDS011;10522;52.198;9.890;2023-03-05T03:41:53;7.07;;;2.80;;
20721;SDS011;10522;52.198;9.890;2023-03-05T03:44:19;10.77;;;2.93;;
20721;SDS011;10522;52.198;9.890;2023-03-05T03:46:45;8.07;;;2.17;;
20721;SDS011;10522;52.198;9.890;2023-03-05T03:49:17;6.47;;;2.67;;
20721;SDS011;10522;52.198;9.890;2023-03-05T03:51:44;5.03;;;2.50;;
20721;SDS011;10522;52.198;9.890;2023-03-05T03:54:10;3.73;;;2.27;;
20721;SDS011;10522;52.198;9.890;2023-03-05T03:56:37;11.80;;;3.20;;
20721;SDS011;10522;52.198;9.890;2023-03-05T03:59:02;13.40;;;3.30;;
20721;SDS011;10522;52.198;9.890;2023-03-05T04:01:28;12.93;;;3.93;;
20721;SDS011;10522;52.198;9.890;2023-03-05T04:03:53;6.80;;;3.20;;
20721;SDS011;10522;52.198;9.890;2023-03-05T04:06:19;5.90;;;2.20;;
20721;SDS011;10522;52.198;9.890;2023-03-05T04:08:45;5.77;;;2.47;;
20721;SDS011;10522;52.198;9.890;2023-03-05T04:11:10;4.63;;;3.17;;
20721;SDS011;10522;52.198;9.890;2023-03-05T04:13:36;10.80;;;2.83;;
20721;SDS011;10522;52.198;9.890;2023-03-05T04:16:01;9.33;;;2.77;;
20721;SDS011;10522;52.198;9.890;2023-03-05T04:18:27;6.83;;;2.87;;
20721;SDS011;10522;52.198;9.890;2023-03-05T04:20:52;7.50;;;2.40;;
20721;SDS011;10522;52.198;9.890;2023-03-05T04:23:18;6.73;;;2.87;;
20721;SDS011;10522;52.198;9.890;2023-03-05T04:25:44;8.33;;;3.53;;
20721;SDS011;10522;52.198;9.890;2023-03-05T04:28:10;10.23;;;2.17;;
20721;SDS011;10522;52.198;9.890;2023-03-05T04:30:36;7.23;;;2.60;;
20721;SDS011;10522;52.198;9.890;2023-03-05T04:33:02;7.40;;;2.50;;
20721;SDS011;10522;52.198;9.890;2023-03-05T04:35:28;4.77;;;2.43;;
20721;SDS011;10522;52.198;9.890;2023-03-05T04:37:54;6.20;;;2.07;;
20721;SDS011;10522;52.198;9.890;2023-03-05T04:40:19;8.03;;;2.80;;
20721;SDS011;10522;52.198;9.890;2023-03-05T04:42:45;7.13;;;2.07;;
20721;SDS011;10522;52.198;9.890;2023-03-05T04:45:11;6.17;;;2.50;;
20721;SDS011;10522;52.198;9.890;2023-03-05T04:47:37;4.77;;;2.57;;
20721;SDS011;10522;52.198;9.890;2023-03-05T04:50:04;7.43;;;2.77;;
20721;SDS011;10522;52.198;9.890;2023-03-05T04:52:31;6.53;;;1.80;;
20721;SDS011;10522;52.198;9.890;2023-03-05T04:54:56;6.17;;;2.57;;
20721;SDS011;10522;52.198;9.890;2023-03-05T04:57:22;4.00;;;2.07;;
20721;SDS011;10522;52.198;9.890;2023-03-05T04:59:48;11.03;;;2.57;;
20721;SDS011;10522;52.198;9.890;2023-03-05T05:02:13;2.83;;;1.93;;
20721;SDS011;10522;52.198;9.890;2023-03-05T05:04:39;9.90;;;2.63;;
20721;SDS011;10522;52.198;9.890;2023-03-05T05:07:08;8.80;;;2.63;;
20721;SDS011;10522;52.198;9.890;2023-03-05T05:09:35;6.87;;;2.57;;
20721;SDS011;10522;52.198;9.890;2023-03-05T05:12:01;5.57;;;2.17;;
20721;SDS011;10522;52.198;9.890;2023-03-05T05:14:27;7.70;;;2.90;;
20721;SDS011;10522;52.198;9.890;2023-03-05T05:16:53;4.77;;;1.83;;
20721;SDS011;10522;52.198;9.890;2023-03-05T05:19:18;7.63;;;2.57;;
20721;SDS011;10522;52.198;9.890;2023-03-05T05:21:44;5.57;;;2.60;;
20721;SDS011;10522;52.198;9.890;2023-03-05T05:24:09;10.30;;;4.87;;
20721;SDS011;10522;52.198;9.890;2023-03-05T05:26:35;5.27;;;2.33;;
20721;SDS011;10522;52.198;9.890;2023-03-05T05:29:02;7.07;;;3.37;;
20721;SDS011;10522;52.198;9.890;2023-03-05T05:31:28;7.33;;;2.27;;
20721;SDS011;10522;52.198;9.890;2023-03-05T05:33:54;7.30;;;2.77;;
20721;SDS011;10522;52.198;9.890;2023-03-05T05:36:19;8.10;;;2.33;;
20721;SDS011;10522;52.198;9.890;2023-03-05T05:38:46;3.27;;;1.77;;
20721;SDS011;10522;52.198;9.890;2023-03-05T05:41:13;5.90;;;2.47;;
20721;SDS011;10522;52.198;9.890;2023-03-05T05:43:40;6.30;;;2.40;;
20721;SDS011;10522;52.198;9.890;2023-03-05T05:46:09;11.27;;;3.77;;
20721;SDS011;10522;52.198;9.890;2023-03-05T05:48:39;5.87;;;2.43;;
20721;SDS011;10522;52.198;9.890;2023-03-05T05:51:05;7.20;;;2.87;;
20721;SDS011;10522;52.198;9.890;2023-03-05T05:53:36;5.83;;;1.63;;
20721;SDS011;10522;52.198;9.890;2023-03-05T05:56:03;6.93;;;2.47;;
20721;SDS011;10522;52.198;9.890;2023-03-05T05:58:30;6.20;;;2.63;;
20721;SDS011;10522;52.198;9.890;2023-03-05T06:00:55;11.97;;;2.70;;
20721;SDS011;10522;52.198;9.890;2023-03-05T06:03:21;1.63;;;1.43;;
20721;SDS011;10522;52.198;9.890;2023-03-05T06:05:46;7.20;;;2.30;;
20721;SDS011;10522;52.198;9.890;2023-03-05T06:08:12;6.77;;;2.20;;
20721;SDS011;10522;52.198;9.890;2023-03-05T06:10:38;5.37;;;2.60;;
20721;SDS011;10522;52.198;9.890;2023-03-05T06:13:03;4.87;;;1.83;;
20721;SDS011;10522;52.198;9.890;2023-03-05T06:15:29;3.17;;;2.03;;
20721;SDS011;10522;52.198;9.890;2023-03-05T06:17:55;5.03;;;1.80;;
20721;SDS011;10522;52.198;9.890;2023-03-05T06:20:22;7.10;;;2.17;;
20721;SDS011;10522;52.198;9.890;2023-03-05T06:22:48;8.57;;;1.90;;
20721;SDS011;10522;52.198;9.890;2023-03-05T06:25:13;4.17;;;2.17;;
20721;SDS011;10522;52.198;9.890;2023-03-05T06:27:39;4.50;;;1.83;;
20721;SDS011;10522;52.198;9.890;2023-03-05T06:30:05;12.77;;;4.13;;
20721;SDS011;10522;52.198;9.890;2023-03-05T06:32:31;6.30;;;2.17;;
20721;SDS011;10522;52.198;9.890;2023-03-05T06:34:57;3.43;;;2.00;;
20721;SDS011;10522;52.198;9.890;2023-03-05T06:37:22;6.20;;;2.57;;
20721;SDS011;10522;52.198;9.890;2023-03-05T06:39:48;4.83;;;2.17;;
20721;SDS011;10522;52.198;9.890;2023-03-05T06:42:14;7.30;;;2.27;;
20721;SDS011;10522;52.198;9.890;2023-03-05T06:44:41;5.27;;;2.00;;
20721;SDS011;10522;52.198;9.890;2023-03-05T06:47:07;5.27;;;2.27;;
20721;SDS011;10522;52.198;9.890;2023-03-05T06:49:34;3.67;;;1.60;;
20721;SDS011;10522;52.198;9.890;2023-03-05T06:52:00;7.03;;;2.67;;
20721;SDS011;10522;52.198;9.890;2023-03-05T06:54:26;9.43;;;2.80;;
20721;SDS011;10522;52.198;9.890;2023-03-05T06:56:52;6.83;;;2.70;;
20721;SDS011;10522;52.198;9.890;2023-03-05T06:59:17;4.20;;;2.80;;
20721;SDS011;10522;52.198;9.890;2023-03-05T07:01:43;5.33;;;3.27;;
20721;SDS011;10522;52.198;9.890;2023-03-05T07:10:30;6.80;;;3.50;;
20721;SDS011;10522;52.198;9.890;2023-03-05T07:12:57;6.93;;;4.30;;
20721;SDS011;10522;52.198;9.890;2023-03-05T07:15:23;10.50;;;3.83;;
20721;SDS011;10522;52.198;9.890;2023-03-05T07:17:48;9.70;;;4.90;;
20721;SDS011;10522;52.198;9.890;2023-03-05T07:20:14;8.50;;;3.87;;
20721;SDS011;10522;52.198;9.890;2023-03-05T07:22:40;9.00;;;3.37;;
20721;SDS011;10522;52.198;9.890;2023-03-05T07:25:05;5.87;;;3.43;;
20721;SDS011;10522;52.198;9.890;2023-03-05T07:27:35;6.17;;;3.63;;
20721;SDS011;10522;52.198;9.890;2023-03-05T07:30:02;15.80;;;3.90;;
20721;SDS011;10522;52.198;9.890;2023-03-05T07:32:29;6.60;;;3.90;;
20721;SDS011;10522;52.198;9.890;2023-03-05T07:34:54;9.50;;;4.33;;
20721;SDS011;10522;52.198;9.890;2023-03-05T07:37:20;8.53;;;4.17;;
20721;SDS011;10522;52.198;9.890;2023-03-05T07:39:46;6.80;;;3.97;;
20721;SDS011;10522;52.198;9.890;2023-03-05T07:42:12;9.87;;;3.20;;
20721;SDS011;10522;52.198;9.890;2023-03-05T07:44:37;7.87;;;3.60;;
20721;SDS011;10522;52.198;9.890;2023-03-05T07:47:03;8.23;;;2.63;;
20721;SDS011;10522;52.198;9.890;2023-03-05T07:49:29;6.97;;;2.57;;
20721;SDS011;10522;52.198;9.890;2023-03-05T07:51:55;4.33;;;2.93;;
20721;SDS011;10522;52.198;9.890;2023-03-05T07:54:20;5.77;;;1.53;;
20721;SDS011;10522;52.198;9.890;2023-03-05T07:56:46;8.17;;;2.37;;
20721;SDS011;10522;52.198;9.890;2023-03-05T07:59:12;2.90;;;1.97;;
20721;SDS011;10522;52.198;9.890;2023-03-05T08:01:38;3.47;;;2.03;;
20721;SDS011;10522;52.198;9.890;2023-03-05T08:04:04;2.57;;;1.37;;
20721;SDS011;10522;52.198;9.890;2023-03-05T08:06:31;2.73;;;1.70;;
20721;SDS011;10522;52.198;9.890;2023-03-05T08:08:57;8.27;;;1.73;;
20721;SDS011;10522;52.198;9.890;2023-03-05T08:11:23;3.40;;;1.53;;
20721;SDS011;10522;52.198;9.890;2023-03-05T08:13:49;5.57;;;1.90;;
20721;SDS011;10522;52.198;9.890;2023-03-05T08:16:17;2.37;;;1.63;;
20721;SDS011;10522;52.198;9.890;2023-03-05T08:18:44;1.47;;;1.20;;
20721;SDS011;10522;52.198;9.890;2023-03-05T08:21:29;3.97;;;1.60;;
20721;SDS011;10522;52.198;9.890;2023-03-05T08:24:01;4.87;;;1.57;;
20721;SDS011;10522;52.198;9.890;2023-03-05T08:26:28;7.07;;;1.67;;
20721;SDS011;10522;52.198;9.890;2023-03-05T08:28:56;3.53;;;1.30;;
20721;SDS011;10522;52.198;9.890;2023-03-05T08:31:22;2.67;;;1.53;;
20721;SDS011;10522;52.198;9.890;2023-03-05T08:33:51;2.63;;;1.10;;
20721;SDS011;10522;52.198;9.890;2023-03-05T08:36:19;3.67;;;1.53;;
20721;SDS011;10522;52.198;9.890;2023-03-05T08:38:45;3.57;;;1.60;;
20721;SDS011;10522;52.198;9.890;2023-03-05T08:41:12;6.07;;;1.30;;
20721;SDS011;10522;52.198;9.890;2023-03-05T08:43:39;4.00;;;2.00;;
20721;SDS011;10522;52.198;9.890;2023-03-05T08:46:05;6.33;;;1.73;;
20721;SDS011;10522;52.198;9.890;2023-03-05T08:48:31;2.33;;;1.20;;
20721;SDS011;10522;52.198;9.890;2023-03-05T08:51:17;3.67;;;1.90;;
20721;SDS011;10522;52.198;9.890;2023-03-05T08:53:44;1.93;;;1.40;;
20721;SDS011;10522;52.198;9.890;2023-03-05T08:56:11;3.77;;;1.50;;
20721;SDS011;10522;52.198;9.890;2023-03-05T08:58:37;2.70;;;1.30;;
20721;SDS011;10522;52.198;9.890;2023-03-05T09:01:03;5.97;;;1.40;;
20721;SDS011;10522;52.198;9.890;2023-03-05T09:03:29;2.77;;;1.50;;
20721;SDS011;10522;52.198;9.890;2023-03-05T09:05:59;5.93;;;1.40;;
20721;SDS011;10522;52.198;9.890;2023-03-05T09:08:25;3.60;;;1.47;;
20721;SDS011;10522;52.198;9.890;2023-03-05T09:10:52;4.10;;;1.60;;
20721;SDS011;10522;52.198;9.890;2023-03-05T09:13:17;2.83;;;2.03;;
20721;SDS011;10522;52.198;9.890;2023-03-05T09:15:43;2.67;;;1.63;;
20721;SDS011;10522;52.198;9.890;2023-03-05T09:18:08;4.80;;;1.70;;
20721;SDS011;10522;52.198;9.890;2023-03-05T09:20:34;3.10;;;1.80;;
20721;SDS011;10522;52.198;9.890;2023-03-05T09:23:00;4.23;;;1.63;;
20721;SDS011;10522;52.198;9.890;2023-03-05T09:25:26;3.30;;;1.53;;
20721;SDS011;10522;52.198;9.890;2023-03-05T09:27:57;6.17;;;1.47;;
20721;SDS011;10522;52.198;9.890;2023-03-05T09:30:46;3.13;;;1.30;;
20721;SDS011;10522;52.198;9.890;2023-03-05T09:33:12;5.33;;;1.27;;
20721;SDS011;10522;52.198;9.890;2023-03-05T09:35:38;5.83;;;1.50;;
20721;SDS011;10522;52.198;9.890;2023-03-05T09:38:04;3.03;;;1.47;;
20721;SDS011;10522;52.198;9.890;2023-03-05T09:41:31;5.60;;;1.90;;
20721;SDS011;10522;52.198;9.890;2023-03-05T09:52:30;3.33;;;1.37;;
20721;SDS011;10522;52.198;9.890;2023-03-05T09:55:08;5.87;;;1.50;;
20721;SDS011;10522;52.198;9.890;2023-03-05T09:57:41;4.80;;;2.00;;
20721;SDS011;10522;52.198;9.890;2023-03-05T10:00:20;3.10;;;1.73;;
20721;SDS011;10522;52.198;9.890;2023-03-05T10:02:56;5.57;;;1.67;;
20721;SDS011;10522;52.198;9.890;2023-03-05T10:05:26;4.00;;;1.43;;
20721;SDS011;10522;52.198;9.890;2023-03-05T10:08:39;1.43;;;1.03;;
20721;SDS011;10522;52.198;9.890;2023-03-05T10:11:17;2.03;;;1.83;;
20721;SDS011;10522;52.198;9.890;2023-03-05T10:14:03;4.80;;;1.47;;
20721;SDS011;10522;52.198;9.890;2023-03-05T10:16:42;0.97;;;0.87;;
20721;SDS011;10522;52.198;9.890;2023-03-05T10:19:33;1.50;;;1.10;;
20721;SDS011;10522;52.198;9.890;2023-03-05T10:25:05;3.17;;;1.50;;
20721;SDS011;10522;52.198;9.890;2023-03-05T10:27:57;2.17;;;1.40;;
20721;SDS011;10522;52.198;9.890;2023-03-05T10:36:51;7.70;;;1.93;;
20721;SDS011;10522;52.198;9.890;2023-03-05T10:39:45;2.93;;;1.20;;
20721;SDS011;10522;52.198;9.890;2023-03-05T10:42:49;5.07;;;2.00;;
20721;SDS011;10522;52.198;9.890;2023-03-05T10:45:32;1.80;;;1.10;;
20721;SDS011;10522;52.198;9.890;2023-03-05T10:50:45;4.93;;;1.60;;
20721;SDS011;10522;52.198;9.890;2023-03-05T10:53:25;7.07;;;2.20;;
20721;SDS011;10522;52.198;9.890;2023-03-05T10:55:59;2.47;;;1.47;;
20721;SDS011;10522;52.198;9.890;2023-03-05T10:58:27;3.77;;;1.50;;
20721;SDS011;10522;52.198;9.890;2023-03-05T11:01:18;2.07;;;1.30;;
20721;SDS011;10522;52.198;9.890;2023-03-05T11:03:57;2.83;;;1.33;;
20721;SDS011;10522;52.198;9.890;2023-03-05T11:09:15;2.87;;;1.37;;
20721;SDS011;10522;52.198;9.890;2023-03-05T11:11:45;3.17;;;1.10;;
20721;SDS011;10522;52.198;9.890;2023-03-05T11:14:37;3.47;;;1.53;;
20721;SDS011;10522;52.198;9.890;2023-03-05T11:20:19;6.57;;;1.60;;
20721;SDS011;10522;52.198;9.890;2023-03-05T11:28:17;4.00;;;1.53;;
20721;SDS011;10522;52.198;9.890;2023-03-05T11:30:53;4.60;;;1.80;;
20721;SDS011;10522;52.198;9.890;2023-03-05T11:33:24;1.87;;;1.10;;
20721;SDS011;10522;52.198;9.890;2023-03-05T11:35:51;4.13;;;1.53;;
20721;SDS011;10522;52.198;9.890;2023-03-05T11:38:29;3.60;;;1.43;;
20721;SDS011;10522;52.198;9.890;2023-03-05T11:40:55;3.17;;;1.30;;
20721;SDS011;10522;52.198;9.890;2023-03-05T11:43:22;4.10;;;1.20;;
20721;SDS011;10522;52.198;9.890;2023-03-05T11:45:54;10.17;;;2.20;;
20721;SDS011;10522;52.198;9.890;2023-03-05T11:48:44;2.00;;;1.50;;
20721;SDS011;10522;52.198;9.890;2023-03-05T11:51:17;4.20;;;1.73;;
20721;SDS011;10522;52.198;9.890;2023-03-05T11:53:55;3.17;;;1.70;;
20721;SDS011;10522;52.198;9.890;2023-03-05T11:56:38;5.33;;;1.63;;
20721;SDS011;10522;52.198;9.890;2023-03-05T11:59:12;5.43;;;1.80;;
20721;SDS011;10522;52.198;9.890;2023-03-05T12:01:44;7.10;;;3.13;;
20721;SDS011;10522;52.198;9.890;2023-03-05T12:04:12;2.47;;;1.63;;
20721;SDS011;10522;52.198;9.890;2023-03-05T12:06:45;11.83;;;1.07;;
20721;SDS011;10522;52.198;9.890;2023-03-05T12:09:24;5.63;;;1.60;;
20721;SDS011;10522;52.198;9.890;2023-03-05T12:12:28;1.93;;;1.17;;
20721;SDS011;10522;52.198;9.890;2023-03-05T12:15:13;3.03;;;1.37;;
20721;SDS011;10522;52.198;9.890;2023-03-05T12:17:43;6.57;;;1.20;;
20721;SDS011;10522;52.198;9.890;2023-03-05T12:20:40;3.13;;;0.83;;
20721;SDS011;10522;52.198;9.890;2023-03-05T12:23:11;5.40;;;0.93;;
20721;SDS011;10522;52.198;9.890;2023-03-05T12:25:46;13.10;;;1.33;;
20721;SDS011;10522;52.198;9.890;2023-03-05T12:28:14;2.63;;;1.00;;
20721;SDS011;10522;52.198;9.890;2023-03-05T12:38:42;3.30;;;1.53;;
20721;SDS011;10522;52.198;9.890;2023-03-05T12:46:35;1.67;;;1.20;;
20721;SDS011;10522;52.198;9.890;2023-03-05T12:51:43;3.13;;;1.30;;
20721;SDS011;10522;52.198;9.890;2023-03-05T12:54:33;3.13;;;1.23;;
20721;SDS011;10522;52.198;9.890;2023-03-05T12:57:14;3.70;;;0.97;;
20721;SDS011;10522;52.198;9.890;2023-03-05T12:59:43;2.77;;;0.80;;
20721;SDS011;10522;52.198;9.890;2023-03-05T13:05:22;5.73;;;1.10;;
20721;SDS011;10522;52.198;9.890;2023-03-05T13:11:00;2.00;;;0.73;;
20721;SDS011;10522;52.198;9.890;2023-03-05T13:13:28;3.27;;;0.90;;
20721;SDS011;10522;52.198;9.890;2023-03-05T13:15:57;2.30;;;0.60;;
20721;SDS011;10522;52.198;9.890;2023-03-05T13:18:28;3.50;;;1.10;;
20721;SDS011;10522;52.198;9.890;2023-03-05T13:21:04;2.63;;;0.90;;
20721;SDS011;10522;52.198;9.890;2023-03-05T13:23:31;1.67;;;0.70;;
20721;SDS011;10522;52.198;9.890;2023-03-05T13:28:42;1.30;;;0.80;;
20721;SDS011;10522;52.198;9.890;2023-03-05T13:31:16;4.93;;;1.13;;
20721;SDS011;10522;52.198;9.890;2023-03-05T13:33:48;1.03;;;0.77;;
20721;SDS011;10522;52.198;9.890;2023-03-05T13:36:31;3.83;;;1.30;;
20721;SDS011;10522;52.198;9.890;2023-03-05T13:38:57;8.03;;;1.23;;
20721;SDS011;10522;52.198;9.890;2023-03-05T13:41:27;1.27;;;0.70;;
20721;SDS011;10522;52.198;9.890;2023-03-05T13:44:00;2.93;;;0.97;;
20721;SDS011;10522;52.198;9.890;2023-03-05T13:46:35;4.30;;;1.10;;
20721;SDS011;10522;52.198;9.890;2023-03-05T13:49:18;0.70;;;0.60;;
20721;SDS011;10522;52.198;9.890;2023-03-05T13:51:53;1.00;;;0.70;;
20721;SDS011;10522;52.198;9.890;2023-03-05T13:54:21;4.23;;;1.10;;
20721;SDS011;10522;52.198;9.890;2023-03-05T13:56:50;5.63;;;1.03;;
20721;SDS011;10522;52.198;9.890;2023-03-05T13:59:19;4.70;;;0.90;;
20721;SDS011;10522;52.198;9.890;2023-03-05T14:01:47;0.60;;;0.60;;
20721;SDS011;10522;52.198;9.890;2023-03-05T14:06:49;0.83;;;0.77;;
20721;SDS011;10522;52.198;9.890;2023-03-05T14:09:30;2.93;;;1.07;;
20721;SDS011;10522;52.198;9.890;2023-03-05T14:12:27;1.00;;;0.60;;
20721;SDS011;10522;52.198;9.890;2023-03-05T14:14:54;0.67;;;0.67;;
20721;SDS011;10522;52.198;9.890;2023-03-05T14:17:40;3.03;;;0.80;;
20721;SDS011;10522;52.198;9.890;2023-03-05T14:22:46;1.37;;;0.67;;
20721;SDS011;10522;52.198;9.890;2023-03-05T14:28:02;1.33;;;0.67;;
20721;SDS011;10522;52.198;9.890;2023-03-05T14:30:45;2.07;;;0.87;;
20721;SDS011;10522;52.198;9.890;2023-03-05T14:33:26;1.60;;;0.90;;
20721;SDS011;10522;52.198;9.890;2023-03-05T14:35:55;1.80;;;0.60;;
20721;SDS011;10522;52.198;9.890;2023-03-05T14:38:25;1.87;;;0.80;;
20721;SDS011;10522;52.198;9.890;2023-03-05T14:40:53;3.23;;;0.60;;
20721;SDS011;10522;52.198;9.890;2023-03-05T14:43:19;1.90;;;0.90;;
20721;SDS011;10522;52.198;9.890;2023-03-05T14:45:45;5.33;;;0.70;;
20721;SDS011;10522;52.198;9.890;2023-03-05T14:48:12;1.10;;;0.77;;
20721;SDS011;10522;52.198;9.890;2023-03-05T14:53:16;2.77;;;1.10;;
20721;SDS011;10522;52.198;9.890;2023-03-05T14:55:45;4.70;;;0.80;;
20721;SDS011;10522;52.198;9.890;2023-03-05T14:58:15;4.17;;;0.90;;
20721;SDS011;10522;52.198;9.890;2023-03-05T15:00:45;0.90;;;0.80;;
20721;SDS011;10522;52.198;9.890;2023-03-05T15:03:13;1.17;;;1.03;;
20721;SDS011;10522;52.198;9.890;2023-03-05T15:05:40;4.63;;;0.90;;
20721;SDS011;10522;52.198;9.890;2023-03-05T15:08:21;1.37;;;0.80;;
20721;SDS011;10522;52.198;9.890;2023-03-05T15:10:51;1.43;;;1.00;;
20721;SDS011;10522;52.198;9.890;2023-03-05T15:13:17;1.13;;;0.93;;
20721;SDS011;10522;52.198;9.890;2023-03-05T15:15:43;0.70;;;0.70;;
20721;SDS011;10522;52.198;9.890;2023-03-05T15:18:14;2.77;;;0.97;;
20721;SDS011;10522;52.198;9.890;2023-03-05T15:20:43;5.13;;;1.17;;
20721;SDS011;10522;52.198;9.890;2023-03-05T15:23:09;2.00;;;1.27;;
20721;SDS011;10522;52.198;9.890;2023-03-05T15:25:36;2.27;;;0.80;;
20721;SDS011;10522;52.198;9.890;2023-03-05T15:28:03;1.00;;;0.90;;
20721;SDS011;10522;52.198;9.890;2023-03-05T15:30:36;1.77;;;0.87;;
20721;SDS011;10522;52.198;9.890;2023-03-05T15:33:04;5.10;;;1.23;;
20721;SDS011;10522;52.198;9.890;2023-03-05T15:35:31;2.60;;;1.40;;
20721;SDS011;10522;52.198;9.890;2023-03-05T15:37:57;3.53;;;1.27;;
20721;SDS011;10522;52.198;9.890;2023-03-05T15:40:23;3.73;;;1.53;;
20721;SDS011;10522;52.198;9.890;2023-03-05T15:42:52;1.20;;;0.63;;
20721;SDS011;10522;52.198;9.890;2023-03-05T15:45:18;1.17;;;1.00;;
20721;SDS011;10522;52.198;9.890;2023-03-05T15:47:44;7.00;;;1.10;;
20721;SDS011;10522;52.198;9.890;2023-03-05T15:50:11;1.57;;;1.30;;
20721;SDS011;10522;52.198;9.890;2023-03-05T15:52:37;4.20;;;1.67;;
20721;SDS011;10522;52.198;9.890;2023-03-05T15:55:03;3.43;;;1.07;;
20721;SDS011;10522;52.198;9.890;2023-03-05T15:57:29;1.70;;;1.00;;
20721;SDS011;10522;52.198;9.890;2023-03-05T15:59:57;3.57;;;1.30;;
20721;SDS011;10522;52.198;9.890;2023-03-05T16:02:23;4.23;;;1.20;;
20721;SDS011;10522;52.198;9.890;2023-03-05T16:04:49;1.10;;;0.70;;
20721;SDS011;10522;52.198;9.890;2023-03-05T16:07:14;2.53;;;1.30;;
20721;SDS011;10522;52.198;9.890;2023-03-05T16:09:43;2.57;;;1.00;;
20721;SDS011;10522;52.198;9.890;2023-03-05T16:12:15;3.70;;;1.40;;
20721;SDS011;10522;52.198;9.890;2023-03-05T16:14:45;1.80;;;1.30;;
20721;SDS011;10522;52.198;9.890;2023-03-05T16:17:12;1.30;;;1.20;;